Time;durP1;ratioP1;P1;durP2;ratioP2;P2;SDS_P1;SDS_P2;PMS_P1;PMS_P2;Temp;Humidity;BMP_temperature;BMP_pressure;BME280_temperature;BME280_humidity;BME280_pressure;Samples;Min_cycle;Max_cycle;Signal;HPM_P1;HPM_P2
2020/12/16 00:00:31;190659.00;0.64;329.84;0.00;0.00;0.62;;;;;15.30;1.00;;;;;;2280748;61;1415;-90
2020/12/16 00:02:58;364259.00;1.21;628.37;0.00;0.00;0.62;;;;;15.30;1.00;;;;;;2280735;61;973;-91
2020/12/16 00:05:26;321639.00;1.07;555.12;0.00;0.00;0.62;;;;;15.40;1.00;;;;;;2280765;61;960;-91
2020/12/16 00:07:52;481034.00;1.60;829.18;54455.00;0.18;94.89;;;;;15.50;1.00;;;;;;2280697;61;1494;-91
2020/12/16 00:10:19;309527.00;1.03;534.30;31520.00;0.11;55.21;;;;;15.50;1.00;;;;;;2280607;61;1911;-90
2020/12/16 00:12:46;319425.00;1.06;551.31;0.00;0.00;0.62;;;;;15.50;1.00;;;;;;2280672;61;1905;-89
2020/12/16 00:15:12;331414.00;1.10;571.92;0.00;0.00;0.62;;;;;15.50;1.00;;;;;;2280591;61;1556;-91
2020/12/16 00:17:39;325558.00;1.09;561.85;0.00;0.00;0.62;;;;;15.50;1.00;;;;;;2280641;61;1594;-91
2020/12/16 00:20:07;424993.00;1.42;732.78;0.00;0.00;0.62;;;;;15.20;1.00;;;;;;2280612;61;1502;-90
2020/12/16 00:22:39;347847.00;1.16;600.16;0.00;0.00;0.62;;;;;15.10;1.00;;;;;;2280742;61;1025;-90
2020/12/16 00:25:08;334785.00;1.12;577.71;0.00;0.00;0.62;;;;;14.90;1.00;;;;;;2280701;61;959;-91
2020/12/16 00:27:36;315998.00;1.05;545.42;0.00;0.00;0.62;;;;;14.70;1.00;;;;;;2280624;61;1724;-92
2020/12/16 00:30:04;346307.00;1.15;597.51;0.00;0.00;0.62;;;;;14.70;1.00;;;;;;2280661;61;1317;-91
2020/12/16 00:32:31;429854.00;1.43;741.13;51639.00;0.17;90.02;;;;;14.80;1.00;;;;;;2280639;61;1936;-90
2020/12/16 00:34:58;413359.00;1.38;712.77;2647.00;0.01;5.21;;;;;14.80;1.00;;;;;;2280377;61;1733;-90
2020/12/16 00:37:24;334112.00;1.11;576.55;0.00;0.00;0.62;;;;;14.90;1.00;;;;;;2280624;61;1150;-89
2020/12/16 00:39:52;294990.00;0.98;509.31;0.00;0.00;0.62;;;;;15.00;1.00;;;;;;2280606;61;1273;-89
2020/12/16 00:42:19;287714.00;0.96;496.80;0.00;0.00;0.62;;;;;15.00;1.00;;;;;;2280655;61;1001;-90
2020/12/16 00:44:45;356140.00;1.19;614.41;0.00;0.00;0.62;;;;;15.00;1.00;;;;;;2280593;61;1007;-90
2020/12/16 00:47:12;326381.00;1.09;563.27;0.00;0.00;0.62;;;;;15.10;1.00;;;;;;2280537;61;1634;-88
2020/12/16 00:49:39;299696.00;1.00;517.40;0.00;0.00;0.62;;;;;14.90;1.00;;;;;;2280605;61;1374;-89
2020/12/16 00:52:05;238120.00;0.79;411.52;0.00;0.00;0.62;;;;;14.80;1.00;;;;;;2280554;61;2028;-90
2020/12/16 00:54:32;446783.00;1.49;770.25;34298.00;0.11;60.02;;;;;14.70;1.00;;;;;;2280560;61;1581;-90
2020/12/16 00:56:59;358609.00;1.20;618.66;0.00;0.00;0.62;;;;;14.80;1.00;;;;;;2280531;61;1682;-90
2020/12/16 00:59:26;245598.00;0.82;424.38;0.00;0.00;0.62;;;;;14.90;1.00;;;;;;2280557;61;1455;-92
2020/12/16 01:01:53;204312.00;0.68;353.35;0.00;0.00;0.62;;;;;15.00;1.00;;;;;;2280588;61;1118;-89
2020/12/16 01:04:19;375197.00;1.25;647.17;0.00;0.00;0.62;;;;;14.70;1.00;;;;;;2280550;61;1571;-90
2020/12/16 01:06:46;534810.00;1.78;921.78;0.00;0.00;0.62;;;;;12.80;1.00;;;;;;2280494;61;1521;-89
2020/12/16 01:09:12;434160.00;1.45;748.54;0.00;0.00;0.62;;;;;11.70;1.00;;;;;;2280444;61;1714;-90
2020/12/16 01:11:39;492038.00;1.64;848.12;0.00;0.00;0.62;;;;;11.60;1.00;;;;;;2280424;61;1997;-89
2020/12/16 01:14:07;300180.00;1.00;518.23;0.00;0.00;0.62;;;;;12.00;1.00;;;;;;2280437;61;1057;-89
2020/12/16 01:16:35;390106.00;1.30;672.80;0.00;0.00;0.62;;;;;12.10;1.00;;;;;;2280455;61;1486;-88
2020/12/16 01:19:04;442390.00;1.47;762.69;0.00;0.00;0.62;;;;;12.20;1.00;;;;;;2280490;61;1064;-90
2020/12/16 01:21:34;471800.00;1.57;813.29;0.00;0.00;0.62;;;;;11.80;1.00;;;;;;2280475;61;1012;-89
2020/12/16 01:24:01;410354.00;1.37;707.61;0.00;0.00;0.62;;;;;11.80;1.00;;;;;;2280515;61;1456;-91
2020/12/16 01:26:28;424843.00;1.42;732.52;0.00;0.00;0.62;;;;;12.00;1.00;;;;;;2280409;61;1586;-91
2020/12/16 01:28:54;416850.00;1.39;718.77;0.00;0.00;0.62;;;;;12.50;1.00;;;;;;2280400;61;1591;-90
2020/12/16 01:31:22;455154.00;1.52;784.65;65043.00;0.22;113.19;;;;;12.90;1.00;;;;;;2280395;61;1925;-90
2020/12/16 01:33:48;363549.00;1.21;627.15;0.00;0.00;0.62;;;;;13.10;1.00;;;;;;2280512;61;992;-90
2020/12/16 01:36:15;321222.00;1.07;554.40;0.00;0.00;0.62;;;;;12.80;1.00;;;;;;2280324;61;1767;-89
2020/12/16 01:38:41;391664.00;1.31;675.48;0.00;0.00;0.62;;;;;12.80;1.00;;;;;;2280383;61;998;-91
2020/12/16 01:41:08;428119.00;1.43;738.15;0.00;0.00;0.62;;;;;13.00;1.00;;;;;;2280437;61;1417;-89
2020/12/16 01:43:36;265426.00;0.88;458.48;0.00;0.00;0.62;;;;;12.70;1.00;;;;;;2280364;61;1002;-89
2020/12/16 01:46:03;444894.00;1.48;767.00;0.00;0.00;0.62;;;;;12.50;1.00;;;;;;2280312;61;938;-90
2020/12/16 01:48:31;269609.00;0.90;465.67;0.00;0.00;0.62;;;;;12.80;1.00;;;;;;2280437;61;1047;-89
2020/12/16 01:50:57;314109.00;1.05;542.17;0.00;0.00;0.62;;;;;12.60;1.00;;;;;;2280322;61;1947;-91
2020/12/16 01:53:27;367108.00;1.22;633.27;0.00;0.00;0.62;;;;;12.30;1.00;;;;;;2280380;61;1105;-91
2020/12/16 01:55:54;433186.00;1.44;746.86;0.00;0.00;0.62;;;;;12.10;1.00;;;;;;2280334;61;1640;-91
2020/12/16 01:58:24;405546.00;1.35;699.34;0.00;0.00;0.62;;;;;11.90;1.00;;;;;;2280175;61;1686;-89
2020/12/16 02:00:52;391153.00;1.30;674.60;0.00;0.00;0.62;;;;;11.80;1.00;;;;;;2280250;61;1601;-90
2020/12/16 02:03:22;521554.00;1.74;898.94;0.00;0.00;0.62;;;;;11.20;1.00;;;;;;2280123;61;1657;-90
2020/12/16 02:05:54;482868.00;1.61;832.33;0.00;0.00;0.62;;;;;10.90;1.00;;;;;;2280332;61;1119;-90
2020/12/16 02:08:21;464019.00;1.55;799.90;0.00;0.00;0.62;;;;;11.10;1.00;;;;;;2280213;61;1090;-91
2020/12/16 02:10:48;414897.00;1.38;715.42;0.00;0.00;0.62;;;;;11.00;1.00;;;;;;2280188;61;2004;-90
2020/12/16 02:13:14;427365.00;1.42;736.85;0.00;0.00;0.62;;;;;11.20;2.30;;;;;;2280220;61;1544;-92
2020/12/16 02:15:41;449243.00;1.50;774.48;0.00;0.00;0.62;;;;;11.70;1.00;;;;;;2280272;61;1690;-91
2020/12/16 02:18:09;434622.00;1.45;749.33;0.00;0.00;0.62;;;;;12.00;1.00;;;;;;2280319;61;988;-90
2020/12/16 02:20:36;443316.00;1.48;764.29;0.00;0.00;0.62;;;;;12.50;1.00;;;;;;2280190;61;1264;-91
2020/12/16 02:23:08;422174.00;1.41;727.93;0.00;0.00;0.62;;;;;12.50;1.00;;;;;;2280155;61;1740;-90
2020/12/16 02:25:36;374195.00;1.25;645.45;0.00;0.00;0.62;;;;;12.90;1.00;;;;;;2280187;61;1604;-90
2020/12/16 02:28:03;248110.00;0.83;428.70;0.00;0.00;0.62;;;;;13.40;1.00;;;;;;2279881;61;1013;-92
2020/12/16 02:30:30;444341.00;1.48;766.05;0.00;0.00;0.62;;;;;13.60;1.00;;;;;;2280223;61;1925;-90
2020/12/16 02:32:56;328245.00;1.09;566.47;0.00;0.00;0.62;;;;;13.30;1.00;;;;;;2280222;61;1763;-91
2020/12/16 02:35:23;331265.00;1.10;571.66;0.00;0.00;0.62;;;;;13.20;1.00;;;;;;2280216;61;1608;-91
2020/12/16 02:37:49;398506.00;1.33;687.24;0.00;0.00;0.62;;;;;12.70;1.00;;;;;;2280189;61;1646;-90
2020/12/16 02:40:16;239814.00;0.80;414.43;0.00;0.00;0.62;;;;;12.50;1.00;;;;;;2279907;61;1673;-91
2020/12/16 02:42:43;283171.00;0.94;488.99;0.00;0.00;0.62;;;;;12.70;1.00;;;;;;2280155;61;934;-90
2020/12/16 02:45:10;409417.00;1.36;705.99;0.00;0.00;0.62;;;;;12.80;1.00;;;;;;2280156;61;1117;-88
2020/12/16 02:47:36;478062.00;1.59;824.06;0.00;0.00;0.62;;;;;12.70;1.00;;;;;;2279839;61;1534;-92
2020/12/16 02:50:04;534984.00;1.78;922.08;0.00;0.00;0.62;;;;;12.40;1.00;;;;;;2280121;61;1403;-90
2020/12/16 02:52:31;454566.00;1.52;783.64;0.00;0.00;0.62;;;;;11.70;1.00;;;;;;2279748;61;1932;-91
2020/12/16 02:54:58;367915.00;1.23;634.65;0.00;0.00;0.62;;;;;11.30;1.00;;;;;;2279982;61;1475;-90
2020/12/16 02:57:25;469756.00;1.57;809.77;0.00;0.00;0.62;;;;;11.40;1.00;;;;;;2280205;61;1596;-90
2020/12/16 03:00:00;500410.00;1.67;862.53;45022.00;0.15;78.58;;;;;11.40;1.00;;;;;;2280803;61;1499;-90
2020/12/16 03:02:27;650205.00;2.17;1120.99;34062.00;0.11;59.61;;;;;12.30;1.00;;;;;;2280941;61;1456;-91
2020/12/16 03:04:53;506551.00;1.69;873.10;22069.00;0.07;38.85;;;;;12.50;1.00;;;;;;2280837;61;1794;-91
2020/12/16 03:07:20;388060.00;1.29;669.28;31792.00;0.11;55.68;;;;;13.10;1.00;;;;;;2280749;61;1549;-92
2020/12/16 03:09:47;506100.00;1.69;872.33;89721.00;0.30;155.83;;;;;13.40;1.00;;;;;;2280512;61;1327;-92
2020/12/16 03:12:14;482446.00;1.61;831.61;38594.00;0.13;67.46;;;;;13.60;1.00;;;;;;2280381;61;2002;-92
2020/12/16 03:14:41;522472.00;1.74;900.52;39565.00;0.13;69.14;;;;;13.80;1.00;;;;;;2280737;61;1446;-91
2020/12/16 03:17:08;541730.00;1.81;933.70;11364.00;0.04;20.31;;;;;13.90;1.00;;;;;;2280902;61;1043;-90
2020/12/16 03:19:35;370612.00;1.24;639.29;0.00;0.00;0.62;;;;;14.10;1.00;;;;;;2280862;61;1292;-92
2020/12/16 03:22:02;441951.00;1.47;761.94;0.00;0.00;0.62;;;;;13.90;1.00;;;;;;2280799;61;1637;-90
2020/12/16 03:24:28;469533.00;1.57;809.39;49793.00;0.17;86.83;;;;;13.80;1.00;;;;;;2280732;61;1643;-91
2020/12/16 03:26:55;372595.00;1.24;642.70;26378.00;0.09;46.31;;;;;13.30;1.00;;;;;;2280873;61;1118;-91
2020/12/16 03:29:22;497625.00;1.66;857.73;0.00;0.00;0.62;;;;;12.80;1.00;;;;;;2280806;61;1743;-91
2020/12/16 03:31:49;492009.00;1.64;848.07;34124.00;0.11;59.72;;;;;12.50;1.00;;;;;;2280778;61;2010;-91
2020/12/16 03:34:16;471918.00;1.57;813.49;61720.00;0.21;107.45;;;;;12.70;1.00;;;;;;2280806;61;1688;-91
2020/12/16 03:36:45;576310.00;1.92;993.33;0.00;0.00;0.62;;;;;12.70;1.00;;;;;;2280829;61;1628;-92
2020/12/16 03:45:51;583485.00;1.94;1005.71;0.00;0.00;0.62;;;;;12.50;1.00;;;;;;2271191;61;1059;-91
2020/12/16 03:48:40;586195.00;1.95;1010.39;22434.00;0.07;39.48;;;;;12.10;1.00;;;;;;2280665;61;1634;-91
2020/12/16 03:51:37;;;;;;;;;;;;;;;;;;;;;
2020/12/16 05:37:23;456550.00;1.52;787.05;82057.00;0.27;142.59;;;;;13.40;1.00;;;;;;2206920;62;1417;-90
2020/12/16 05:40:04;405251.00;1.35;698.83;80256.00;0.27;139.48;;;;;12.90;1.00;;;;;;2216006;62;1386;-89
2020/12/16 05:42:32;607756.00;2.03;1047.61;71640.00;0.24;124.59;;;;;13.30;1.00;;;;;;2216436;62;1110;-89
2020/12/16 05:45:06;650761.00;2.17;1121.95;82709.00;0.28;143.72;;;;;13.30;1.00;;;;;;2234042;62;1091;-90
2020/12/16 05:47:32;694659.00;2.32;1197.98;5542.00;0.02;10.22;;;;;12.50;1.00;;;;;;2233709;62;1675;-91
2020/12/16 05:49:59;546780.00;1.82;942.41;0.00;0.00;0.62;;;;;12.20;1.00;;;;;;2231335;62;1702;-90
2020/12/16 05:52:26;705406.00;2.35;1216.61;90613.00;0.30;157.37;;;;;11.80;1.00;;;;;;2231894;62;2003;-90
2020/12/16 05:54:53;623388.00;2.08;1074.62;88584.00;0.30;153.86;;;;;11.20;1.00;;;;;;2231677;62;1748;-90
2020/12/16 05:57:21;394508.00;1.32;680.36;0.00;0.00;0.62;;;;;11.20;1.00;;;;;;2231941;62;1157;-89
2020/12/16 06:00:08;347012.00;1.16;598.73;0.00;0.00;0.62;;;;;10.90;1.00;;;;;;2242447;62;1382;-89
2020/12/16 06:02:38;665233.00;2.22;1147.00;93345.00;0.31;162.08;;;;;10.50;1.00;;;;;;2253381;61;1024;-90
2020/12/16 06:05:06;692329.00;2.31;1193.94;93358.00;0.31;162.11;;;;;10.20;1.40;;;;;;2261305;61;1565;-90
2020/12/16 06:07:39;552507.00;1.84;952.28;84644.00;0.28;147.06;;;;;10.70;3.10;;;;;;2275968;61;1056;-91
2020/12/16 06:10:06;768136.00;2.56;1325.61;168124.00;0.56;291.04;;;;;10.80;1.00;;;;;;2280321;61;1482;-89
2020/12/16 06:12:38;598668.00;2.00;1031.92;90395.00;0.30;156.99;;;;;10.60;1.00;;;;;;2280033;61;2010;-89
2020/12/16 06:15:08;602939.00;2.01;1039.29;85083.00;0.28;147.82;;;;;10.00;1.00;;;;;;2280314;61;1041;-89
2020/12/16 06:17:38;645633.00;2.15;1113.08;91093.00;0.30;158.19;;;;;9.70;3.20;;;;;;2280338;61;1018;-90
2020/12/16 06:20:13;527633.00;1.76;909.41;89404.00;0.30;155.28;;;;;9.60;3.90;;;;;;2280321;61;1393;-89
2020/12/16 06:22:45;682751.00;2.28;1177.34;88383.00;0.29;153.52;;;;;9.50;4.40;;;;;;2280271;61;1090;-90
2020/12/16 06:25:14;1107670.00;3.69;1924.15;116773.00;0.39;202.52;;;;;9.30;4.10;;;;;;2280180;61;1619;-89
2020/12/16 06:27:45;695175.00;2.32;1198.87;94894.00;0.32;164.76;;;;;9.00;4.70;;;;;;2280165;61;1077;-90
2020/12/16 06:30:16;708177.00;2.36;1221.42;94667.00;0.32;164.37;;;;;9.00;5.50;;;;;;2280095;61;1614;-88
2020/12/16 06:33:32;888073.00;2.96;1535.18;79498.00;0.26;138.17;;;;;9.40;5.20;;;;;;2283526;60;1997;-89
2020/12/16 06:36:51;799565.00;2.67;1380.37;0.00;0.00;0.62;;;;;9.70;4.10;;;;;;2259897;61;979;-90
2020/12/16 06:39:41;791045.00;2.64;1365.51;0.00;0.00;0.62;;;;;10.10;2.10;;;;;;2232293;62;1361;-89
2020/12/16 06:42:35;384404.00;1.28;663.00;0.00;0.00;0.62;;;;;10.40;1.60;;;;;;2224736;62;1051;-89
2020/12/16 06:49:11;750550.00;2.50;1295.01;0.00;0.00;0.62;;;;;10.90;2.70;;;;;;2201574;63;1002;-89
2020/12/16 07:15:00;351410.00;1.17;606.28;0.00;0.00;0.62;;;;;11.50;1.00;;;;;;2204238;62;1038;-90
2020/12/16 07:17:27;493895.00;1.65;851.31;78988.00;0.26;137.29;;;;;11.30;1.00;;;;;;2212719;62;1003;-91
2020/12/16 07:19:53;328939.00;1.10;567.66;0.00;0.00;0.62;;;;;11.80;1.00;;;;;;2213328;62;1824;-90
2020/12/16 07:22:24;400675.00;1.34;690.97;0.00;0.00;0.62;;;;;12.40;1.00;;;;;;2213157;62;1650;-90
2020/12/16 07:24:52;369570.00;1.23;637.50;0.00;0.00;0.62;;;;;12.90;1.00;;;;;;2214586;62;1572;-91
2020/12/16 07:27:21;400477.00;1.33;690.63;71924.00;0.24;125.09;;;;;12.90;1.00;;;;;;2217005;62;1626;-89
2020/12/16 07:29:56;398171.00;1.33;686.66;0.00;0.00;0.62;;;;;13.10;1.00;;;;;;2216618;62;1533;-90
2020/12/16 07:32:27;278102.00;0.93;480.27;0.00;0.00;0.62;;;;;12.90;1.00;;;;;;2206681;62;2014;-89
2020/12/16 07:34:55;365460.00;1.22;630.43;0.00;0.00;0.62;;;;;13.10;1.00;;;;;;2205379;63;1738;-91
2020/12/16 07:37:24;238023.00;0.79;411.35;0.00;0.00;0.62;;;;;13.30;1.00;;;;;;2198921;63;1740;-90
2020/12/16 07:39:52;381920.00;1.27;658.73;0.00;0.00;0.62;;;;;13.60;1.00;;;;;;2196173;63;1409;-90
2020/12/16 07:42:20;271418.00;0.90;468.78;0.00;0.00;0.62;;;;;13.90;1.00;;;;;;2204433;63;1145;-90
2020/12/16 07:44:47;452683.00;1.51;780.40;0.00;0.00;0.62;;;;;14.10;1.00;;;;;;2217805;62;1633;-91
2020/12/16 07:47:16;603765.00;2.01;1040.72;0.00;0.00;0.62;;;;;14.20;1.00;;;;;;2233206;62;1071;-91
2020/12/16 07:49:44;348992.00;1.16;602.13;0.00;0.00;0.62;;;;;14.40;1.00;;;;;;2256502;61;1396;-91
2020/12/16 07:52:11;313439.00;1.04;541.02;0.00;0.00;0.62;;;;;13.90;1.00;;;;;;2276463;61;1996;-91
2020/12/16 07:54:38;586451.00;1.95;1010.83;59466.00;0.20;103.55;;;;;13.40;1.00;;;;;;2280763;61;1717;-90
2020/12/16 07:57:05;545662.00;1.82;940.48;0.00;0.00;0.62;;;;;13.40;1.00;;;;;;2280867;61;1004;-92
2020/12/16 07:59:33;568934.00;1.90;980.61;18520.00;0.06;32.71;;;;;13.50;1.00;;;;;;2280772;61;1738;-92
2020/12/16 08:02:11;530487.00;1.77;914.33;0.00;0.00;0.62;;;;;13.70;1.00;;;;;;2280812;61;1129;-91
2020/12/16 08:04:39;285905.00;0.95;493.69;0.00;0.00;0.62;;;;;13.70;1.00;;;;;;2280801;61;1049;-92
2020/12/16 08:07:14;297921.00;0.99;514.35;0.00;0.00;0.62;;;;;13.30;1.00;;;;;;2280730;61;1094;-89
2020/12/16 08:09:53;440159.00;1.47;758.86;0.00;0.00;0.62;;;;;13.00;1.00;;;;;;2280730;61;1598;-92
2020/12/16 08:12:20;224585.00;0.75;388.23;0.00;0.00;0.62;;;;;13.20;1.00;;;;;;2280778;61;1982;-92
2020/12/16 08:14:47;370139.00;1.23;638.48;0.00;0.00;0.62;;;;;13.50;1.00;;;;;;2280801;61;976;-90
2020/12/16 08:17:14;554302.00;1.85;955.38;0.00;0.00;0.62;;;;;13.10;1.00;;;;;;2280773;61;1734;-90
2020/12/16 08:19:41;393992.00;1.31;679.48;0.00;0.00;0.62;;;;;12.80;1.00;;;;;;2280742;61;1625;-90
2020/12/16 08:22:16;472566.00;1.58;814.60;0.00;0.00;0.62;;;;;12.70;1.00;;;;;;2280796;61;1098;-91
2020/12/16 08:24:43;474003.00;1.58;817.08;0.00;0.00;0.62;;;;;12.70;1.00;;;;;;2280685;61;1704;-89
2020/12/16 08:27:10;247638.00;0.83;427.89;0.00;0.00;0.62;;;;;13.00;1.00;;;;;;2280723;61;1041;-91
2020/12/16 08:29:38;314111.00;1.05;542.18;0.00;0.00;0.62;;;;;13.40;1.00;;;;;;2280508;61;1403;-91
2020/12/16 08:32:08;352057.00;1.17;607.40;0.00;0.00;0.62;;;;;13.70;1.00;;;;;;2280419;61;1980;-90
2020/12/16 08:34:42;313211.00;1.04;540.63;0.00;0.00;0.62;;;;;13.80;1.00;;;;;;2280632;61;1053;-89
2020/12/16 08:37:11;215743.00;0.72;373.02;0.00;0.00;0.62;;;;;13.90;1.00;;;;;;2280617;61;1015;-91
2020/12/16 08:39:44;244986.00;0.82;423.33;0.00;0.00;0.62;;;;;14.10;1.00;;;;;;2280633;61;1301;-90
2020/12/16 08:42:12;386725.00;1.29;666.99;0.00;0.00;0.62;;;;;13.80;1.00;;;;;;2280537;61;1752;-91
2020/12/16 08:44:39;358316.00;1.19;618.15;0.00;0.00;0.62;;;;;13.40;1.00;;;;;;2280578;61;1587;-89
2020/12/16 08:47:05;432118.00;1.44;745.03;0.00;0.00;0.62;;;;;13.60;1.00;;;;;;2280610;61;1543;-89
2020/12/16 08:49:32;285834.00;0.95;493.57;0.00;0.00;0.62;;;;;14.10;1.00;;;;;;2280594;61;1624;-89
2020/12/16 08:51:58;314246.00;1.05;542.41;0.00;0.00;0.62;;;;;14.20;1.00;;;;;;2280556;61;2006;-90
2020/12/16 08:54:27;265161.00;0.88;458.02;0.00;0.00;0.62;;;;;14.30;1.00;;;;;;2280584;61;1753;-91
2020/12/16 08:56:56;292591.00;0.98;505.18;0.00;0.00;0.62;;;;;14.40;1.00;;;;;;2280381;61;1434;-90
2020/12/16 08:59:25;244664.00;0.82;422.77;0.00;0.00;0.62;;;;;14.20;1.00;;;;;;2280650;61;1288;-89
2020/12/16 09:01:55;298620.00;1.00;515.55;0.00;0.00;0.62;;;;;14.30;1.00;;;;;;2280660;61;1615;-88
2020/12/16 09:04:24;186230.00;0.62;322.22;0.00;0.00;0.62;;;;;14.20;1.00;;;;;;2280742;61;1012;-90
2020/12/16 09:07:01;475239.00;1.58;819.20;0.00;0.00;0.62;;;;;14.00;1.00;;;;;;2280592;61;1235;-90
2020/12/16 09:09:29;253875.00;0.85;438.62;0.00;0.00;0.62;;;;;13.50;1.00;;;;;;2280639;61;1319;-91
2020/12/16 09:11:56;412785.00;1.38;711.79;0.00;0.00;0.62;;;;;13.80;1.00;;;;;;2280600;61;2006;-89
2020/12/16 09:14:24;373914.00;1.25;644.96;0.00;0.00;0.62;;;;;13.60;1.00;;;;;;2280583;61;1435;-91
2020/12/16 09:16:51;235970.00;0.79;407.82;0.00;0.00;0.62;;;;;14.00;1.00;;;;;;2280657;61;925;-90
2020/12/16 09:19:20;121989.00;0.41;211.51;0.00;0.00;0.62;;;;;14.40;1.00;;;;;;2280532;61;1391;-89
2020/12/16 09:21:47;278757.00;0.93;481.40;0.00;0.00;0.62;;;;;14.80;1.00;;;;;;2280538;61;1767;-90
2020/12/16 09:24:14;242087.00;0.81;418.34;0.00;0.00;0.62;;;;;14.90;1.00;;;;;;2280471;61;1659;-90
2020/12/16 09:26:44;413865.00;1.38;713.64;0.00;0.00;0.62;;;;;15.00;1.00;;;;;;2280508;61;1769;-91
2020/12/16 09:29:26;344938.00;1.15;595.16;0.00;0.00;0.62;;;;;15.10;1.00;;;;;;2280249;61;1545;-91
2020/12/16 09:32:06;392555.00;1.31;677.01;31500.00;0.10;55.18;;;;;15.10;1.00;;;;;;2280344;61;1934;-89
2020/12/16 09:34:37;278972.00;0.93;481.77;0.00;0.00;0.62;;;;;14.90;1.00;;;;;;2280518;61;1062;-89
2020/12/16 09:37:11;289902.00;0.97;500.56;0.00;0.00;0.62;;;;;14.90;1.00;;;;;;2279607;61;1089;-88
2020/12/16 09:39:38;193583.00;0.65;334.88;0.00;0.00;0.62;;;;;15.00;1.00;;;;;;2271285;61;1384;-88
2020/12/16 09:42:09;207438.00;0.69;358.73;0.00;0.00;0.62;;;;;14.90;1.00;;;;;;2276693;61;1161;-90
2020/12/16 09:44:38;198512.00;0.66;343.36;0.00;0.00;0.62;;;;;14.80;1.00;;;;;;2280505;61;1193;-92
2020/12/16 09:47:13;342662.00;1.14;591.25;0.00;0.00;0.62;;;;;15.10;1.00;;;;;;2280441;61;1595;-90
2020/12/16 09:49:42;316442.00;1.05;546.18;0.00;0.00;0.62;;;;;15.10;1.00;;;;;;2280340;61;1469;-90
2020/12/16 09:52:26;295479.00;0.98;510.15;0.00;0.00;0.62;;;;;15.10;1.00;;;;;;2280474;61;1909;-91
2020/12/16 09:54:52;224452.00;0.75;388.00;0.00;0.00;0.62;;;;;15.20;1.00;;;;;;2280384;61;890;-89
2020/12/16 09:57:22;340623.00;1.14;587.74;0.00;0.00;0.62;;;;;14.60;1.00;;;;;;2280438;61;1714;-91
2020/12/16 09:59:50;399745.00;1.33;689.37;0.00;0.00;0.62;;;;;14.80;1.00;;;;;;2280332;61;1588;-91
2020/12/16 10:02:17;268300.00;0.89;463.42;0.00;0.00;0.62;;;;;15.00;1.00;;;;;;2280457;61;1551;-90
2020/12/16 10:04:44;502281.00;1.67;865.75;0.00;0.00;0.62;;;;;14.90;1.00;;;;;;2280165;61;922;-90
2020/12/16 10:07:11;455469.00;1.52;785.19;0.00;0.00;0.62;;;;;14.60;1.00;;;;;;2280410;61;951;-89
2020/12/16 10:09:40;317281.00;1.06;547.62;0.00;0.00;0.62;;;;;14.80;1.00;;;;;;2280366;61;1469;-89
2020/12/16 10:12:06;361429.00;1.20;623.50;0.00;0.00;0.62;;;;;14.90;1.00;;;;;;2280426;61;1911;-90
2020/12/16 10:14:33;262463.00;0.87;453.38;0.00;0.00;0.62;;;;;14.90;1.00;;;;;;2280341;61;1812;-92
2020/12/16 10:17:00;370215.00;1.23;638.61;0.00;0.00;0.62;;;;;14.50;1.00;;;;;;2280359;61;975;-90
2020/12/16 10:19:27;389965.00;1.30;672.55;0.00;0.00;0.62;;;;;14.20;1.00;;;;;;2280372;61;1285;-90
2020/12/16 10:21:55;472522.00;1.58;814.53;45373.00;0.15;79.18;;;;;14.20;1.00;;;;;;2280374;61;1202;-91
2020/12/16 10:24:22;525294.00;1.75;905.38;0.00;0.00;0.62;;;;;14.00;1.00;;;;;;2280281;61;1574;-90
2020/12/16 10:26:49;400039.00;1.33;689.87;0.00;0.00;0.62;;;;;14.30;1.00;;;;;;2280361;61;1639;-90
2020/12/16 10:29:17;243969.00;0.81;421.58;0.00;0.00;0.62;;;;;14.40;1.00;;;;;;2280268;61;1719;-90
2020/12/16 10:31:58;558315.00;1.86;962.30;119999.00;0.40;208.08;;;;;14.20;1.00;;;;;;2280300;61;1915;-90
2020/12/16 10:34:26;321991.00;1.07;555.72;0.00;0.00;0.62;;;;;14.60;1.00;;;;;;2280251;61;1805;-90
2020/12/16 10:36:53;335187.00;1.12;578.40;0.00;0.00;0.62;;;;;14.80;1.00;;;;;;2280322;61;1014;-91
2020/12/16 10:39:21;301042.00;1.00;519.71;0.00;0.00;0.62;;;;;15.20;1.00;;;;;;2280264;61;1434;-89
2020/12/16 10:41:55;316224.00;1.05;545.81;0.00;0.00;0.62;;;;;15.50;1.00;;;;;;2280154;61;1160;-90
2020/12/16 10:44:22;187618.00;0.63;324.61;0.00;0.00;0.62;;;;;15.80;1.00;;;;;;2280166;61;1364;-90
2020/12/16 10:46:53;245446.00;0.82;424.12;0.00;0.00;0.62;;;;;15.90;1.00;;;;;;2280226;61;1606;-91
2020/12/16 10:49:21;124615.00;0.42;216.04;0.00;0.00;0.62;;;;;15.90;1.00;;;;;;2280180;61;1576;-90
2020/12/16 10:52:16;199660.00;0.67;345.34;0.00;0.00;0.62;;;;;16.00;1.00;;;;;;2280127;61;1989;-91
2020/12/16 11:12:43;682209.00;2.27;1176.40;19277.00;0.06;34.02;;;;;16.00;1.00;;;;;;2289978;60;1962;-91
2020/12/16 11:15:10;418722.00;1.40;721.99;0.00;0.00;0.62;;;;;16.10;1.00;;;;;;2288266;60;1758;-91
2020/12/16 11:17:36;384394.00;1.28;662.98;0.00;0.00;0.62;;;;;16.20;1.00;;;;;;2288200;60;1787;-90
2020/12/16 11:20:04;413957.00;1.38;713.80;11825.00;0.04;21.11;;;;;16.30;1.00;;;;;;2288664;60;1397;-90
2020/12/16 11:22:30;460073.00;1.53;793.11;0.00;0.00;0.62;;;;;16.30;1.00;;;;;;2288987;60;1778;-91
2020/12/16 11:24:57;516105.00;1.72;889.56;0.00;0.00;0.62;;;;;16.10;1.00;;;;;;2288970;60;1459;-90
2020/12/16 11:27:23;429971.00;1.43;741.34;0.00;0.00;0.62;;;;;16.20;1.00;;;;;;2289100;60;985;-90
2020/12/16 11:29:51;480483.00;1.60;828.23;0.00;0.00;0.62;;;;;16.30;1.00;;;;;;2288946;60;1768;-90
2020/12/16 11:32:17;463253.00;1.54;798.58;0.00;0.00;0.62;;;;;16.60;1.00;;;;;;2288908;60;2003;-90
2020/12/16 11:34:44;547880.00;1.83;944.30;0.00;0.00;0.62;;;;;16.60;1.00;;;;;;2288916;60;1734;-90
2020/12/16 11:37:12;416026.00;1.39;717.36;0.00;0.00;0.62;;;;;16.50;1.00;;;;;;2289083;60;917;-91
2020/12/16 11:39:39;273174.00;0.91;471.80;0.00;0.00;0.62;;;;;16.50;1.00;;;;;;2288934;60;1283;-91
2020/12/16 11:42:05;327541.00;1.09;565.26;0.00;0.00;0.62;;;;;16.60;1.00;;;;;;2288975;60;1741;-90
2020/12/16 11:44:32;477786.00;1.59;823.59;0.00;0.00;0.62;;;;;16.40;1.00;;;;;;2288939;60;1988;-91
2020/12/16 11:46:59;266281.00;0.89;459.95;0.00;0.00;0.62;;;;;16.30;1.00;;;;;;2288956;60;1116;-90
2020/12/16 11:49:27;351830.00;1.17;607.01;0.00;0.00;0.62;;;;;16.60;1.00;;;;;;2288951;60;1375;-91
2020/12/16 11:51:54;348515.00;1.16;601.31;0.00;0.00;0.62;;;;;16.50;1.00;;;;;;2288909;60;1996;-93
2020/12/16 11:54:21;527950.00;1.76;909.96;0.00;0.00;0.62;;;;;16.50;1.00;;;;;;2288908;60;1746;-90
2020/12/16 11:56:48;474273.00;1.58;817.54;0.00;0.00;0.62;;;;;16.60;1.00;;;;;;2288851;60;1743;-91
2020/12/16 11:59:15;276085.00;0.92;476.81;0.00;0.00;0.62;;;;;16.60;1.00;;;;;;2288887;60;1442;-90
2020/12/16 12:01:42;429042.00;1.43;739.74;0.00;0.00;0.62;;;;;16.40;1.00;;;;;;2288873;60;1756;-90
2020/12/16 12:04:10;468486.00;1.56;807.58;26146.00;0.09;45.91;;;;;16.40;1.00;;;;;;2288884;60;1732;-89
2020/12/16 12:06:37;377476.00;1.26;651.09;0.00;0.00;0.62;;;;;16.60;1.00;;;;;;2288886;60;1626;-91
2020/12/16 12:09:04;312715.00;1.04;539.78;0.00;0.00;0.62;;;;;16.70;1.00;;;;;;2288901;60;1624;-91
2020/12/16 12:11:31;534093.00;1.78;920.54;5507.00;0.02;10.16;;;;;16.70;1.00;;;;;;2288737;60;1923;-91
2020/12/16 12:13:57;373548.00;1.25;644.34;0.00;0.00;0.62;;;;;16.80;1.00;;;;;;2288929;60;1121;-90
2020/12/16 12:16:23;454450.00;1.51;783.44;0.00;0.00;0.62;;;;;16.80;1.00;;;;;;2288796;60;1736;-91
2020/12/16 12:18:50;440740.00;1.47;759.86;0.00;0.00;0.62;;;;;16.80;1.00;;;;;;2288897;60;993;-91
2020/12/16 12:21:18;438710.00;1.46;756.36;0.00;0.00;0.62;;;;;16.20;1.00;;;;;;2288830;60;1687;-90
2020/12/16 12:23:45;403045.00;1.34;695.04;0.00;0.00;0.62;;;;;16.00;1.00;;;;;;2288688;60;1128;-91
2020/12/16 12:26:12;421337.00;1.40;726.49;0.00;0.00;0.62;;;;;15.90;1.00;;;;;;2288743;60;1580;-91
2020/12/16 12:28:38;378379.00;1.26;652.64;0.00;0.00;0.62;;;;;15.70;1.00;;;;;;2288635;60;1624;-91
2020/12/16 12:31:05;416496.00;1.39;718.17;0.00;0.00;0.62;;;;;15.30;1.00;;;;;;2288042;60;1398;-90
2020/12/16 12:33:32;321156.00;1.07;554.29;0.00;0.00;0.62;;;;;15.20;1.00;;;;;;2288644;60;2036;-92
2020/12/16 12:35:59;574234.00;1.91;989.75;77500.00;0.26;134.72;;;;;15.20;1.00;;;;;;2288580;60;1698;-93